Bear Creek Observed Data For Previous 48 Hours

Caption
Day and Hour Reservoir Elevation (behind dam)* Tailwater Elevation (below dam)* Average Hourly Discharge*
7/14/2018 1 AM CDT 575.85 538.20 53
7/14/2018 2 AM CDT 575.84 538.20 53
7/14/2018 3 AM CDT 575.85 538.20 53
7/14/2018 4 AM CDT 575.84 538.21 54
7/14/2018 5 AM CDT 575.84 538.21 54
7/14/2018 6 AM CDT 575.85 538.21 54
7/14/2018 7 AM CDT 575.84 538.21 54
7/14/2018 8 AM CDT 575.85 538.21 54
7/14/2018 9 AM CDT 575.86 538.21 54
7/14/2018 10 AM CDT 575.86 538.21 54
7/14/2018 11 AM CDT 575.87 538.21 54
7/14/2018 12 PM CDT 575.88 538.20 53
7/14/2018 1 PM CDT 575.88 538.20 53
7/14/2018 2 PM CDT 575.89 538.20 53
7/14/2018 3 PM CDT 575.90 538.20 53
7/14/2018 4 PM CDT 575.92 538.20 53
7/14/2018 5 PM CDT 575.98 538.21 54
7/14/2018 6 PM CDT 576.01 538.21 54
7/14/2018 7 PM CDT 576.04 538.21 54
7/14/2018 8 PM CDT 576.07 538.21 54
7/14/2018 9 PM CDT 576.10 538.21 54
7/14/2018 10 PM CDT 576.13 538.21 54
7/14/2018 11 PM CDT 576.15 538.21 54
7/15/2018 12 AM CDT 576.17 538.21 54
7/15/2018 1 AM CDT 576.20 538.22 55
7/15/2018 2 AM CDT 576.22 538.21 54
7/15/2018 3 AM CDT 576.25 538.22 55
7/15/2018 4 AM CDT 576.27 538.22 55
7/15/2018 5 AM CDT 576.30 538.22 55
7/15/2018 6 AM CDT 576.31 538.21 54
7/15/2018 7 AM CDT 576.33 538.21 54
7/15/2018 8 AM CDT 576.35 538.21 54
7/15/2018 9 AM CDT 576.34 539.22 131
7/15/2018 10 AM CDT 576.34 539.30 136
7/15/2018 11 AM CDT 576.33 539.29 135
7/15/2018 12 PM CDT 576.33 539.29 135
7/15/2018 1 PM CDT 576.32 539.29 135
7/15/2018 2 PM CDT 576.30 539.30 136
7/15/2018 3 PM CDT 576.35 539.31 136
7/15/2018 4 PM CDT 576.39 539.30 136
7/15/2018 5 PM CDT 576.43 539.30 136
7/15/2018 6 PM CDT 576.43 539.30 136
7/15/2018 7 PM CDT 576.47 539.30 136
7/15/2018 8 PM CDT 576.49 539.31 136
7/15/2018 9 PM CDT 576.51 539.54 166
7/15/2018 10 PM CDT 576.56 539.65 181
7/15/2018 11 PM CDT 576.62 539.66 182
7/16/2018 12 AM CDT 576.67 539.66 182

Elevations are in feet above sea level. Discharges are in cubic feet per second and are reported at the end of the hour.